Hovedside
METAR-TAF:

METAR-TAF

Lufthavner :

Karup lufthavn

Karup, Danmark

breddegrad: 56-18N, lengdegrad: 009-07E, høyde over havet: 52 m

Gjeldene værobservasjon

Denne rapporten ble laget for 10 minutter siden, klokken 02:28 UTC
Vind 16 kt fra Vest-nordvest med vindkast opp mot 27 kt, skiftende mellom Vest og Nord
Temperatur 12°C
Luftfuktighet 82%
Trykk 1016 hPa
Sikt 10 km eller mer

METAR: EKKA 230228Z AUTO 29016G27KT 270V350 9999NDV BKN014/// 12/09 Q1016

Tid: 04:38 (02:38 UTC)

Varsel

Denne rapporten ble laget for 10 minutter siden, klokken 02:28 UTC
Varsel gyldig fra 23. klokken 03 UTC til 23. klokken 24 UTC
Vind 15 kt fra Vest-nordvest med vindkast opp mot 25 kt
Sikt 10 km eller mer
Spredte skyer i en høyde av 2000 ft
Midlertidig
fra 23. klokken 03 UTC til 23. klokken 24 UTC
Vind 12 kt fra Vest-nordvest
Brutte skyer i en høyde av 1400 ft

TAF: EKKA 230228Z 2303/2324 30015G25KT 9999 SCT020 TEMPO 2303/2324 29012KT BKN014

Værobservasjoner og værvarsel for over 4000 flyplasser (METAR- og TAF-rapporter).

Tilgjengelige stasjoner er representert av de røde og gule prikkene på kartet.

Hold musepekeren over prikken for å se navnet på stasjonen.

Klikk så for å se værobservasjoner og -varsler.

For å forandre kartet kan du klikke på den grønne knappen med svart kryss for å zoome inn, på den grønne knappen med strek for å zoome ut, eller på de grønne pilene for å se tilstøtende kart.


METAR-TAF: